Time;durP1;ratioP1;P1;durP2;ratioP2;P2;SDS_P1;SDS_P2;PMS_P1;PMS_P2;Temp;Humidity;BMP_temperature;BMP_pressure;BME280_temperature;BME280_humidity;BME280_pressure;Samples;Min_cycle;Max_cycle;Signal;HPM_P1;HPM_P2
2022/12/18 00:01:23;;;;;;;72.10;28.50;;;;;;;-3.41;86.66;101572.33;126814;1295;107505;-73
2022/12/18 00:04:29;;;;;;;59.80;25.00;;;;;;;-3.44;86.06;101572.92;126934;1296;107494;-73
2022/12/18 00:07:36;;;;;;;61.70;25.10;;;;;;;-3.46;86.55;101577.84;126887;1292;107289;-72
2022/12/18 00:10:41;;;;;;;54.50;20.90;;;;;;;-3.57;86.57;101580.82;126794;1302;107509;-73
2022/12/18 00:13:47;;;;;;;58.00;23.80;;;;;;;-3.65;86.71;101584.13;126795;1302;107683;-72
2022/12/18 00:16:52;;;;;;;72.50;27.60;;;;;;;-3.68;87.14;101584.71;126935;1296;107584;-73
2022/12/18 00:19:58;;;;;;;205.70;79.60;;;;;;;-3.64;87.07;101587.92;126888;1296;107469;-73
2022/12/18 00:23:03;;;;;;;86.60;33.70;;;;;;;-3.60;86.50;101586.81;126887;1302;107515;-74
2022/12/18 00:26:13;;;;;;;86.70;34.30;;;;;;;-3.53;86.49;101583.90;126925;1292;107444;-73
2022/12/18 00:29:18;;;;;;;65.70;26.30;;;;;;;-3.49;86.44;101587.10;126670;1302;107634;-74
2022/12/18 00:32:24;;;;;;;70.10;27.80;;;;;;;-3.54;86.15;101592.09;126565;1301;105447;-73
2022/12/18 00:35:29;;;;;;;65.10;24.10;;;;;;;-3.58;86.42;101598.08;126715;1296;107560;-73
2022/12/18 00:38:34;;;;;;;93.20;33.70;;;;;;;-3.56;86.40;101601.16;126620;1301;107452;-72
2022/12/18 00:45:05;;;;;;;67.40;27.20;;;;;;;-3.48;86.25;101613.89;126807;1301;107502;-73
2022/12/18 00:48:10;;;;;;;63.10;24.80;;;;;;;-3.53;86.20;101620.08;126617;1296;107369;-73
2022/12/18 00:51:16;;;;;;;58.60;23.50;;;;;;;-3.61;86.27;101627.52;126678;1292;107518;-73
2022/12/18 00:54:21;;;;;;;69.70;26.00;;;;;;;-3.64;86.28;101632.45;126764;1301;107388;-73
2022/12/18 00:57:26;;;;;;;61.90;24.30;;;;;;;-3.67;86.37;101641.38;126994;1302;107509;-74
2022/12/18 01:00:32;;;;;;;65.20;24.00;;;;;;;-3.75;86.55;101649.00;126689;1296;107519;-74
2022/12/18 01:03:37;;;;;;;59.60;23.60;;;;;;;-3.81;86.48;101654.48;126602;1296;107555;-72
2022/12/18 01:06:43;;;;;;;54.00;21.40;;;;;;;-3.86;86.70;101658.59;126675;1294;107660;-72
2022/12/18 01:09:49;;;;;;;77.40;28.40;;;;;;;-3.92;86.83;101659.91;126728;1296;107594;-73
2022/12/18 01:12:54;;;;;;;56.70;21.80;;;;;;;-3.91;87.00;101658.50;126637;1301;106654;-73
2022/12/18 01:15:59;;;;;;;56.20;22.10;;;;;;;-3.96;87.10;101662.39;126827;1294;107558;-73
2022/12/18 01:19:05;;;;;;;55.90;21.20;;;;;;;-4.04;87.15;101665.31;126871;1296;107503;-74
2022/12/18 01:22:10;;;;;;;53.70;20.90;;;;;;;-4.07;87.23;101671.28;126763;1302;106520;-73
2022/12/18 01:25:17;;;;;;;60.20;22.60;;;;;;;-4.06;87.42;101675.25;126689;1295;107507;-73
2022/12/18 01:28:22;;;;;;;57.90;22.00;;;;;;;-4.04;87.21;101677.82;125862;1296;1157974;-73
2022/12/18 01:31:30;;;;;;;53.00;20.40;;;;;;;-3.93;87.01;101677.47;126916;1302;107492;-74
2022/12/18 01:34:35;;;;;;;79.50;27.80;;;;;;;-3.83;87.00;101678.88;126929;1295;107586;-72
2022/12/18 01:37:42;;;;;;;110.00;35.80;;;;;;;-3.80;86.79;101679.15;126935;1293;106487;-73
2022/12/18 01:40:48;;;;;;;73.80;26.00;;;;;;;-3.73;86.66;101678.52;126709;1296;107473;-73
2022/12/18 01:43:56;;;;;;;76.40;26.70;;;;;;;-3.75;86.67;101680.31;127012;1300;107579;-72
2022/12/18 01:47:02;;;;;;;65.90;25.00;;;;;;;-3.77;86.56;101683.48;126972;1296;105820;-72
2022/12/18 01:50:12;;;;;;;136.80;38.70;;;;;;;-3.84;86.72;101694.18;127033;1296;108596;-71
2022/12/18 01:53:21;;;;;;;93.80;31.00;;;;;;;-3.88;86.95;101693.39;126774;1302;107481;-73
2022/12/18 01:56:26;;;;;;;95.40;32.10;;;;;;;-3.84;86.72;101694.18;126644;1302;107730;-71
2022/12/18 01:59:34;;;;;;;96.10;30.80;;;;;;;-3.76;87.10;101705.02;126890;1299;107376;-73
2022/12/18 02:02:40;;;;;;;60.90;23.70;;;;;;;-3.74;86.76;101709.15;126837;1293;107535;-73
2022/12/18 02:05:58;;;;;;;69.30;25.60;;;;;;;-3.79;86.61;101711.32;126743;1299;107289;-73
2022/12/18 02:09:13;;;;;;;63.10;24.00;;;;;;;-3.86;87.05;101715.08;126783;1296;107553;-73
2022/12/18 02:12:23;;;;;;;56.60;21.50;;;;;;;-3.90;86.90;101723.85;126664;1289;107513;-73
2022/12/18 02:15:35;;;;;;;63.60;23.80;;;;;;;-3.92;86.88;101729.27;126908;1296;107502;-74
2022/12/18 02:18:46;;;;;;;83.00;28.10;;;;;;;-4.00;87.23;101732.34;127133;1295;107450;-72
2022/12/18 02:22:01;;;;;;;72.30;26.70;;;;;;;-4.03;87.03;101741.60;126770;1294;106622;-71
2022/12/18 02:25:22;;;;;;;61.10;24.30;;;;;;;-4.01;87.20;101744.86;126935;1296;107571;-72
2022/12/18 02:28:32;;;;;;;59.20;23.30;;;;;;;-3.93;87.17;101748.92;126697;1288;108123;-73
2022/12/18 02:31:44;;;;;;;66.20;24.70;;;;;;;-3.91;86.66;101752.20;126960;1289;107552;-73
2022/12/18 02:34:51;;;;;;;68.30;26.40;;;;;;;-3.90;86.97;101758.10;126849;1296;107557;-72
2022/12/18 02:37:58;;;;;;;71.00;26.60;;;;;;;-3.90;86.63;101758.78;126705;1295;107625;-72
2022/12/18 02:41:06;;;;;;;72.60;24.50;;;;;;;-3.94;86.95;101759.89;126602;1295;107333;-73
2022/12/18 02:44:14;;;;;;;76.00;27.30;;;;;;;-3.98;86.87;101763.95;126691;1294;107536;-72
2022/12/18 02:47:23;;;;;;;70.70;26.40;;;;;;;-3.95;86.94;101767.72;126795;1296;107530;-72
2022/12/18 02:50:36;;;;;;;77.70;28.90;;;;;;;-3.90;86.64;101779.30;126738;1296;106062;-72
2022/12/18 02:53:46;;;;;;;73.00;26.70;;;;;;;-3.86;86.73;101780.45;126735;1295;107504;-68
2022/12/18 02:56:56;;;;;;;88.80;32.70;;;;;;;-3.84;86.83;101781.30;126598;1295;107544;-73
2022/12/18 03:00:06;;;;;;;74.10;29.20;;;;;;;-3.87;86.70;101781.69;126863;1286;107457;-73
2022/12/18 03:03:20;;;;;;;74.10;28.30;;;;;;;-3.92;86.70;101785.08;126590;1294;107672;-72
2022/12/18 03:06:31;;;;;;;82.90;30.90;;;;;;;-3.99;87.06;101790.38;126880;1296;107469;-72
2022/12/18 03:09:39;;;;;;;80.50;29.50;;;;;;;-4.04;87.00;101796.01;126597;1294;107537;-72
2022/12/18 03:12:51;;;;;;;111.50;36.80;;;;;;;-4.03;87.10;101801.56;126814;1296;107505;-72
2022/12/18 03:16:00;;;;;;;78.20;29.70;;;;;;;-3.99;87.04;101802.36;126890;1299;107606;-71
2022/12/18 03:19:12;;;;;;;104.00;33.00;;;;;;;-3.94;86.95;101801.95;126768;1291;107497;-73
2022/12/18 03:22:21;;;;;;;109.20;37.30;;;;;;;-3.87;86.83;101802.37;126847;1295;106375;-73
2022/12/18 03:25:31;;;;;;;98.10;35.30;;;;;;;-3.90;86.72;101802.94;126890;1294;107470;-73
2022/12/18 03:28:40;;;;;;;111.30;39.10;;;;;;;-3.92;86.87;101809.58;126645;1296;107570;-73
2022/12/18 03:31:55;;;;;;;69.50;26.40;;;;;;;-3.98;86.85;101811.04;126582;1296;107456;-72
2022/12/18 03:35:04;;;;;;;75.30;28.80;;;;;;;-3.97;86.81;101810.52;126761;1296;107414;-72
2022/12/18 03:38:13;;;;;;;96.70;36.00;;;;;;;-3.96;86.91;101814.48;126968;1295;108646;-74
2022/12/18 03:41:31;;;;;;;69.80;26.20;;;;;;;-3.93;86.80;101819.85;126688;1296;107444;-74
2022/12/18 03:45:04;;;;;;;91.20;31.50;;;;;;;-3.86;86.74;101826.01;126666;1301;107457;-74
2022/12/18 03:48:16;;;;;;;77.30;27.60;;;;;;;-3.80;86.60;101837.04;126764;1303;108622;-73
2022/12/18 03:51:29;;;;;;;69.20;26.80;;;;;;;-3.76;86.63;101839.59;126782;1303;107544;-74
2022/12/18 03:54:36;;;;;;;90.30;33.20;;;;;;;-3.76;86.26;101842.37;126655;1295;107636;-73
2022/12/18 03:57:50;;;;;;;88.00;30.70;;;;;;;-3.83;86.24;101838.30;126682;1286;107443;-73
2022/12/18 04:01:00;;;;;;;102.10;36.60;;;;;;;-3.83;86.40;101848.91;127186;1296;107357;-73
2022/12/18 04:04:07;;;;;;;70.10;27.00;;;;;;;-3.79;86.45;101859.80;126857;1295;107270;-73
2022/12/18 04:07:16;;;;;;;86.40;32.30;;;;;;;-3.75;86.41;101867.23;126942;1294;107714;-73
2022/12/18 04:10:23;;;;;;;64.20;25.10;;;;;;;-3.71;86.30;101874.30;126959;1294;107505;-73
2022/12/18 04:13:33;;;;;;;103.00;36.60;;;;;;;-3.66;86.39;101876.83;126819;1299;107473;-73
2022/12/18 04:16:40;;;;;;;64.10;24.30;;;;;;;-3.61;86.24;101886.15;126919;1294;107417;-74
2022/12/18 04:19:47;;;;;;;99.20;42.30;;;;;;;-3.59;86.11;101893.24;126800;1295;107495;-73
2022/12/18 04:22:53;;;;;;;76.80;32.40;;;;;;;-3.58;86.00;101896.70;126790;1295;108737;-73
2022/12/18 04:25:58;;;;;;;72.60;31.10;;;;;;;-3.61;86.13;101894.51;126978;1296;107472;-74
2022/12/18 04:29:24;;;;;;;89.40;41.80;;;;;;;-3.66;86.26;101896.48;126945;1296;107451;-74
2022/12/18 04:32:29;;;;;;;62.30;26.40;;;;;;;-3.71;86.29;101898.13;126865;1293;107523;-73
2022/12/18 04:35:35;;;;;;;69.10;27.60;;;;;;;-3.78;86.04;101903.95;126853;1294;106534;-73
2022/12/18 04:38:40;;;;;;;63.00;27.20;;;;;;;-3.82;86.19;101906.98;126611;1289;107529;-74
2022/12/18 04:41:49;;;;;;;53.70;23.40;;;;;;;-3.79;86.36;101921.17;126812;1296;107421;-75
2022/12/18 04:44:54;;;;;;;56.30;22.40;;;;;;;-3.75;86.40;101925.84;126892;1294;107538;-73
2022/12/18 04:48:01;;;;;;;59.80;24.60;;;;;;;-3.70;86.19;101927.84;126905;1295;106693;-74
2022/12/18 04:51:07;;;;;;;60.90;26.00;;;;;;;-3.69;86.00;101927.48;126822;1296;106629;-74
2022/12/18 04:54:13;;;;;;;75.70;32.70;;;;;;;-3.67;86.33;101929.19;126871;1296;107510;-74
2022/12/18 04:57:18;;;;;;;60.70;27.60;;;;;;;-3.65;85.86;101931.95;126824;1296;107477;-74
2022/12/18 05:00:24;;;;;;;64.00;27.30;;;;;;;-3.70;85.94;101926.62;126801;1293;107515;-74
2022/12/18 05:03:31;;;;;;;72.70;29.30;;;;;;;-3.78;85.88;101928.64;126916;1295;107622;-73
2022/12/18 05:06:36;;;;;;;66.30;27.70;;;;;;;-3.85;86.03;101929.09;126804;1296;107499;-73
2022/12/18 05:09:43;;;;;;;64.30;26.00;;;;;;;-3.86;86.16;101929.62;126781;1292;107550;-74
2022/12/18 05:13:01;;;;;;;70.70;26.50;;;;;;;-3.84;86.00;101932.73;126780;1296;107344;-74
2022/12/18 05:16:07;;;;;;;228.40;75.50;;;;;;;-3.77;85.91;101934.38;126902;1296;107251;-74
2022/12/18 05:19:13;;;;;;;226.80;75.50;;;;;;;-3.71;86.00;101938.99;126811;1295;107258;-74
2022/12/18 05:22:18;;;;;;;81.10;31.60;;;;;;;-3.67;85.83;101938.59;126857;1294;106522;-74
2022/12/18 05:25:24;;;;;;;53.80;22.40;;;;;;;-3.67;85.65;101945.02;126875;1289;107505;-74
2022/12/18 05:28:32;;;;;;;55.60;24.80;;;;;;;-3.69;86.03;101946.28;126922;1299;107506;-74
2022/12/18 05:31:37;;;;;;;67.70;26.00;;;;;;;-3.73;85.60;101953.27;126896;1302;107495;-74
2022/12/18 05:34:43;;;;;;;54.90;21.10;;;;;;;-3.83;85.90;101956.19;126875;1294;107372;-74
2022/12/18 05:37:48;;;;;;;51.30;21.40;;;;;;;-3.80;85.95;101957.54;126859;1295;107442;-75
2022/12/18 05:40:54;;;;;;;55.30;22.60;;;;;;;-3.72;85.85;101966.48;126857;1295;107379;-74
2022/12/18 05:44:00;;;;;;;57.80;23.10;;;;;;;-3.67;86.07;101965.02;126871;1296;108076;-72
2022/12/18 05:47:05;;;;;;;60.00;23.30;;;;;;;-3.64;85.59;101964.12;126834;1303;107276;-73
2022/12/18 05:50:11;;;;;;;69.20;24.90;;;;;;;-3.66;85.58;101966.57;126897;1295;107603;-74
2022/12/18 05:53:19;;;;;;;61.80;22.00;;;;;;;-3.64;85.57;101963.93;127162;1288;105995;-74
2022/12/18 05:56:24;;;;;;;58.30;26.70;;;;;;;-3.67;85.22;101969.02;127112;1286;107536;-74
2022/12/18 05:59:30;;;;;;;56.40;23.80;;;;;;;-3.69;85.56;101976.70;126897;1288;107450;-71
2022/12/18 06:02:35;;;;;;;86.70;32.20;;;;;;;-3.77;85.34;101984.27;126944;1295;107537;-73
2022/12/18 06:05:42;;;;;;;162.40;65.20;;;;;;;-3.85;85.72;101984.55;126897;1294;106553;-72
2022/12/18 06:08:48;;;;;;;78.70;30.00;;;;;;;-3.89;85.52;101988.61;126831;1296;107597;-73
2022/12/18 06:11:54;;;;;;;69.40;25.60;;;;;;;-3.84;85.78;101996.19;126908;1286;107433;-74
2022/12/18 06:15:00;;;;;;;66.10;27.30;;;;;;;-3.81;85.16;102002.75;126816;1296;107624;-73
2022/12/18 06:18:06;;;;;;;77.30;30.00;;;;;;;-3.82;85.50;101999.98;126756;1282;108656;-72
2022/12/18 06:21:11;;;;;;;73.50;31.20;;;;;;;-3.80;85.56;102006.21;126823;1296;107507;-74
2022/12/18 06:24:17;;;;;;;72.90;29.90;;;;;;;-3.81;85.54;102012.31;126904;1294;107354;-71
2022/12/18 06:27:22;;;;;;;64.40;27.90;;;;;;;-3.75;85.88;102017.64;126857;1294;107506;-74
2022/12/18 06:30:27;;;;;;;56.40;23.60;;;;;;;-3.75;85.46;102021.83;126804;1286;107361;-73
2022/12/18 06:33:34;;;;;;;54.30;23.50;;;;;;;-3.78;85.44;102027.25;126796;1302;107927;-73
2022/12/18 06:36:39;;;;;;;62.20;24.20;;;;;;;-3.85;85.35;102036.36;126762;1294;107514;-73
2022/12/18 06:39:45;;;;;;;53.10;23.00;;;;;;;-3.88;85.67;102042.30;126757;1288;107417;-73
2022/12/18 06:42:50;;;;;;;55.90;21.90;;;;;;;-3.83;85.89;102046.42;126906;1291;107248;-73
2022/12/18 06:46:04;;;;;;;177.70;57.10;;;;;;;-3.68;85.64;102048.69;126815;1288;107567;-73
2022/12/18 06:49:09;;;;;;;63.80;25.70;;;;;;;-3.60;85.59;102048.77;126750;1295;107518;-72
2022/12/18 06:52:14;;;;;;;66.20;27.80;;;;;;;-3.53;85.02;102053.55;126796;1294;107285;-73
2022/12/18 06:55:20;;;;;;;163.30;59.30;;;;;;;-3.51;84.97;102052.15;126908;1295;107494;-72
2022/12/18 06:58:25;;;;;;;70.50;29.20;;;;;;;-3.55;84.78;102059.14;126876;1294;107434;-72
2022/12/18 07:01:31;;;;;;;117.70;46.40;;;;;;;-3.62;84.42;102067.76;127144;1295;107520;-71
2022/12/18 07:04:36;;;;;;;68.80;28.30;;;;;;;-3.67;84.96;102079.11;127046;1295;107480;-72
2022/12/18 07:07:42;;;;;;;67.60;27.00;;;;;;;-3.66;85.18;102080.84;126911;1295;106522;-73
2022/12/18 07:10:48;;;;;;;104.70;38.30;;;;;;;-3.59;85.17;102085.81;126865;1295;107483;-73
2022/12/18 07:13:54;;;;;;;117.90;39.80;;;;;;;-3.63;85.27;102095.08;126820;1296;107231;-73
2022/12/18 07:17:00;;;;;;;62.60;26.90;;;;;;;-3.60;85.40;102100.09;127178;1278;107480;-74
2022/12/18 07:20:07;;;;;;;78.10;32.70;;;;;;;-3.57;84.92;102106.83;126977;1279;107452;-77
2022/12/18 07:23:12;;;;;;;71.80;30.40;;;;;;;-3.49;85.03;102108.31;126818;1296;107560;-73
2022/12/18 07:26:19;;;;;;;108.00;44.80;;;;;;;-3.38;85.47;102120.17;126922;1288;107497;-73
2022/12/18 07:29:25;;;;;;;62.90;26.00;;;;;;;-3.23;85.40;102121.40;126936;1285;106619;-71
2022/12/18 07:32:32;;;;;;;59.40;24.50;;;;;;;-3.03;85.67;102119.41;127030;1296;107347;-76
2022/12/18 07:35:37;;;;;;;47.30;20.60;;;;;;;-2.88;85.10;102124.77;126807;1294;107524;-76
2022/12/18 07:38:43;;;;;;;52.40;21.20;;;;;;;-2.88;84.88;102125.64;126809;1299;107622;-74
2022/12/18 07:42:30;;;;;;;65.20;33.80;;;;;;;-2.81;85.35;102125.55;126769;1295;107548;-76
2022/12/18 07:45:14;;;;;;;84.50;41.10;;;;;;;-2.68;84.82;102128.15;126891;1288;107494;-78
2022/12/18 07:48:19;;;;;;;64.90;29.60;;;;;;;-2.63;84.60;102129.98;127170;1278;107239;-75
2022/12/18 07:51:25;;;;;;;52.50;24.40;;;;;;;-2.62;84.31;102138.69;126831;1289;107546;-71
2022/12/18 07:54:30;;;;;;;101.40;45.00;;;;;;;-2.71;84.63;102140.21;126784;1302;107518;-73
2022/12/18 07:57:36;;;;;;;62.30;29.20;;;;;;;-2.64;84.72;102143.95;126882;1296;106536;-72
2022/12/18 08:00:41;;;;;;;53.30;22.80;;;;;;;-2.50;84.79;102152.45;126955;1295;107479;-71
2022/12/18 08:03:46;;;;;;;53.70;25.30;;;;;;;-2.41;83.76;102151.27;126727;1289;108004;-70
2022/12/18 08:06:52;;;;;;;50.60;24.50;;;;;;;-2.32;84.08;102151.14;126570;1279;108442;-70
2022/12/18 08:09:57;;;;;;;66.70;33.60;;;;;;;-2.25;84.30;102152.60;126707;1295;108166;-71
2022/12/18 08:13:03;;;;;;;48.90;22.20;;;;;;;-2.15;84.06;102160.63;126847;1287;107371;-72
2022/12/18 08:16:09;;;;;;;193.60;87.80;;;;;;;-2.14;83.86;102162.70;126529;1281;108074;-72
2022/12/18 08:19:15;;;;;;;194.80;77.90;;;;;;;-2.06;84.18;102167.80;126684;1295;107657;-71
2022/12/18 08:22:20;;;;;;;109.80;40.60;;;;;;;-2.03;83.80;102171.09;126711;1286;107315;-72
2022/12/18 08:25:26;;;;;;;216.50;100.00;;;;;;;-2.10;83.37;102173.80;126960;1296;107121;-69
2022/12/18 08:28:31;;;;;;;114.10;51.80;;;;;;;-2.08;84.22;102174.13;126675;1278;108211;-70
2022/12/18 08:31:36;;;;;;;124.30;57.50;;;;;;;-2.01;83.93;102177.67;126795;1284;108070;-72
2022/12/18 08:34:42;;;;;;;89.80;41.90;;;;;;;-1.99;83.36;102182.52;126874;1286;107557;-72
2022/12/18 08:37:47;;;;;;;145.40;66.00;;;;;;;-2.01;83.39;102182.38;126945;1286;106272;-73
2022/12/18 08:41:01;;;;;;;120.60;59.80;;;;;;;-1.98;83.68;102190.00;126908;1287;107634;-72
2022/12/18 08:47:30;;;;;;;53.40;27.40;;;;;;;-2.07;83.38;102207.23;127066;1286;107481;-73
2022/12/18 08:50:36;;;;;;;59.20;27.10;;;;;;;-1.98;83.37;102201.34;127193;1289;107515;-73
2022/12/18 08:53:42;;;;;;;46.10;21.40;;;;;;;-1.90;83.15;102196.85;127017;1272;106611;-74
2022/12/18 08:56:49;;;;;;;48.40;21.30;;;;;;;-1.77;83.27;102202.21;126698;1286;107470;-75
2022/12/18 08:59:55;;;;;;;52.50;21.10;;;;;;;-1.58;83.42;102209.39;126911;1285;107239;-71
2022/12/18 09:03:03;;;;;;;53.70;22.10;;;;;;;-1.42;82.77;102205.97;126897;1295;107615;-72
2022/12/18 09:06:14;;;;;;;55.00;27.00;;;;;;;-1.34;82.15;102205.10;126828;1286;107496;-72
2022/12/18 09:09:19;;;;;;;52.90;24.20;;;;;;;-1.44;80.42;102210.72;126814;1296;107508;-73
2022/12/18 09:12:24;;;;;;;554.00;413.30;;;;;;;-1.59;80.71;102208.70;126883;1281;107550;-72
2022/12/18 09:15:30;;;;;;;71.20;34.70;;;;;;;-1.66;81.08;102211.43;126830;1278;107393;-73
2022/12/18 09:18:35;;;;;;;63.40;26.70;;;;;;;-1.77;80.25;102215.48;126939;1295;107595;-71
2022/12/18 09:21:41;;;;;;;61.70;29.60;;;;;;;-1.96;80.57;102221.36;127210;1278;107478;-73
2022/12/18 09:24:46;;;;;;;64.40;28.80;;;;;;;-2.01;80.51;102221.45;126837;1295;107526;-73
2022/12/18 09:27:51;;;;;;;53.30;24.50;;;;;;;-2.02;81.37;102231.21;126660;1286;107428;-72
2022/12/18 09:30:57;;;;;;;52.80;24.50;;;;;;;-2.07;81.81;102231.65;126927;1278;107623;-73
2022/12/18 09:34:09;;;;;;;48.40;22.50;;;;;;;-2.04;82.04;102231.27;126958;1294;107475;-71
2022/12/18 09:37:15;;;;;;;51.30;24.00;;;;;;;-1.88;82.03;102242.34;126830;1286;107681;-72
2022/12/18 09:40:24;;;;;;;61.30;25.90;;;;;;;-1.76;82.17;102242.85;126781;1295;107542;-74
2022/12/18 09:43:36;;;;;;;55.40;23.20;;;;;;;-1.66;81.84;102239.55;126845;1294;109251;-73
2022/12/18 09:46:48;;;;;;;54.30;24.80;;;;;;;-1.57;81.90;102240.62;126872;1295;107491;-71
2022/12/18 09:49:59;;;;;;;52.20;23.60;;;;;;;-1.40;82.16;102241.89;126833;1284;108671;-73
2022/12/18 09:53:13;;;;;;;56.10;24.60;;;;;;;-1.25;81.78;102240.40;127088;1280;106245;-73
2022/12/18 09:56:22;;;;;;;51.40;25.20;;;;;;;-1.09;81.93;102239.23;127003;1279;106812;-74
2022/12/18 09:59:32;;;;;;;56.40;25.40;;;;;;;-1.03;80.89;102236.30;127034;1280;105891;-71
2022/12/18 10:02:37;;;;;;;52.30;24.50;;;;;;;-1.20;79.61;102241.35;127042;1278;107474;-73
2022/12/18 10:05:52;;;;;;;56.00;24.40;;;;;;;-1.39;79.67;102243.44;126799;1286;108650;-73
2022/12/18 10:09:04;;;;;;;54.20;24.40;;;;;;;-1.53;79.78;102243.17;126865;1278;108014;-72
2022/12/18 10:12:15;;;;;;;59.90;26.70;;;;;;;-1.65;79.88;102243.36;126791;1295;107235;-74
2022/12/18 10:15:31;;;;;;;58.40;24.90;;;;;;;-1.64;80.77;102241.60;126853;1295;107540;-72
2022/12/18 10:18:55;;;;;;;58.50;26.50;;;;;;;-1.57;80.93;102236.44;126984;1292;107529;-71
2022/12/18 10:22:11;;;;;;;58.90;28.50;;;;;;;-1.44;81.20;102239.68;126718;1289;108307;-71
2022/12/18 10:25:24;;;;;;;53.50;24.90;;;;;;;-1.35;81.03;102242.51;126471;1295;108187;-73
2022/12/18 10:28:32;;;;;;;52.90;23.50;;;;;;;-1.23;81.17;102241.06;126632;1295;107490;-71
2022/12/18 10:31:37;;;;;;;48.80;22.30;;;;;;;-1.15;81.24;102249.98;126727;1296;107540;-70
2022/12/18 10:34:45;;;;;;;49.90;23.10;;;;;;;-1.07;81.00;102249.85;126683;1285;110286;-71
2022/12/18 10:38:05;;;;;;;52.00;25.00;;;;;;;-1.01;81.07;102250.07;126931;1295;107264;-71
2022/12/18 10:41:27;;;;;;;61.80;25.20;;;;;;;-0.97;80.75;102243.72;126895;1295;105656;-72
2022/12/18 10:44:33;;;;;;;56.10;24.30;;;;;;;-0.92;80.53;102239.05;126799;1286;105365;-72
2022/12/18 10:47:42;;;;;;;48.90;22.50;;;;;;;-0.87;80.52;102239.48;126933;1295;107545;-72
2022/12/18 10:50:51;;;;;;;77.90;37.60;;;;;;;-0.71;80.74;102239.17;126869;1295;107539;-72
2022/12/18 10:54:03;;;;;;;71.60;30.50;;;;;;;-0.62;79.10;102240.55;126912;1295;107484;-72
2022/12/18 10:57:30;;;;;;;52.50;25.00;;;;;;;-0.81;79.11;102247.23;126909;1294;107454;-73
2022/12/18 11:00:36;;;;;;;67.50;33.20;;;;;;;-0.94;77.99;102244.52;126425;1295;108148;-69
2022/12/18 11:03:44;;;;;;;54.30;25.80;;;;;;;-1.15;78.63;102242.13;126540;1295;108071;-72
2022/12/18 11:07:01;;;;;;;58.90;27.20;;;;;;;-1.24;79.09;102248.23;126698;1289;107358;-68
2022/12/18 11:10:17;;;;;;;49.90;23.20;;;;;;;-1.26;79.63;102256.11;126821;1286;107504;-72
2022/12/18 11:13:24;;;;;;;57.00;25.50;;;;;;;-1.13;80.25;102264.27;126967;1286;107482;-78
2022/12/18 11:16:32;;;;;;;138.00;74.80;;;;;;;-1.02;80.04;102264.41;126992;1286;107230;-71
2022/12/18 11:19:40;;;;;;;86.40;42.10;;;;;;;-1.03;79.77;102253.78;126679;1295;108118;-70
2022/12/18 11:22:55;;;;;;;105.10;48.90;;;;;;;-0.98;80.00;102250.19;126764;1286;107487;-72
2022/12/18 11:26:02;;;;;;;114.60;56.60;;;;;;;-0.91;79.86;102256.33;126716;1280;107485;-70
2022/12/18 11:29:17;;;;;;;158.60;75.70;;;;;;;-0.91;79.50;102261.23;126908;1295;107512;-72
2022/12/18 11:32:35;;;;;;;88.20;41.10;;;;;;;-0.95;79.17;102265.50;126941;1295;107506;-74
2022/12/18 11:35:48;;;;;;;69.40;31.10;;;;;;;-1.03;79.26;102263.21;127130;1293;107556;-71
2022/12/18 11:38:58;;;;;;;66.50;28.50;;;;;;;-1.06;79.70;102270.27;126842;1278;107500;-71
2022/12/18 11:42:11;;;;;;;65.50;28.70;;;;;;;-1.07;79.42;102273.23;126664;1278;108154;-68
2022/12/18 11:45:28;;;;;;;58.90;28.00;;;;;;;-1.10;79.45;102274.70;126888;1294;107638;-72
2022/12/18 11:48:38;;;;;;;63.10;28.90;;;;;;;-1.15;79.18;102273.58;126863;1294;107516;-70
2022/12/18 11:51:50;;;;;;;59.80;27.90;;;;;;;-1.18;79.38;102268.72;126922;1295;108573;-71
2022/12/18 11:55:00;;;;;;;58.10;26.70;;;;;;;-1.20;79.68;102259.14;126868;1295;108135;-72
2022/12/18 11:58:15;;;;;;;59.20;26.70;;;;;;;-1.17;79.40;102253.34;126927;1286;107501;-73
2022/12/18 12:01:43;;;;;;;60.40;25.50;;;;;;;-1.20;79.18;102249.55;127198;1279;107483;-72
2022/12/18 12:05:04;;;;;;;208.10;90.10;;;;;;;-1.26;79.43;102256.64;126936;1295;107503;-72
2022/12/18 12:08:19;;;;;;;78.20;32.30;;;;;;;-1.26;79.34;102252.80;127100;1281;107522;-72
2022/12/18 12:11:33;;;;;;;75.90;31.70;;;;;;;-1.22;79.24;102260.25;127152;1286;107496;-73
2022/12/18 12:14:49;;;;;;;61.80;27.40;;;;;;;-1.15;79.43;102272.35;127229;1303;107507;-72
2022/12/18 12:18:00;;;;;;;66.00;28.90;;;;;;;-1.06;79.36;102290.17;127177;1302;107682;-72
2022/12/18 12:21:13;;;;;;;66.70;29.00;;;;;;;-1.00;79.04;102291.45;127064;1296;107505;-71
2022/12/18 12:24:35;;;;;;;71.10;29.90;;;;;;;-0.99;79.06;102292.13;127131;1296;107471;-72
2022/12/18 12:27:48;;;;;;;68.10;29.50;;;;;;;-0.96;78.99;102298.90;127152;1282;107645;-70
2022/12/18 12:31:08;;;;;;;74.90;32.70;;;;;;;-0.97;78.84;102299.96;126926;1295;108129;-71
2022/12/18 12:34:20;;;;;;;73.10;33.60;;;;;;;-1.04;78.70;102298.16;127088;1295;107544;-71
2022/12/18 12:37:34;;;;;;;76.50;34.40;;;;;;;-1.07;78.69;102309.92;126893;1286;107171;-70
2022/12/18 12:40:45;;;;;;;74.20;30.10;;;;;;;-1.13;78.61;102315.09;126908;1295;108323;-71
2022/12/18 12:43:51;;;;;;;64.40;27.10;;;;;;;-1.21;78.57;102313.30;127002;1286;108413;-70
2022/12/18 12:47:00;;;;;;;61.90;26.50;;;;;;;-1.25;78.69;102306.39;127176;1296;107501;-70
2022/12/18 12:50:14;;;;;;;59.80;26.50;;;;;;;-1.25;78.60;102306.05;126990;1295;107355;-70
2022/12/18 12:53:27;;;;;;;61.70;26.20;;;;;;;-1.27;78.58;102312.90;126876;1299;107521;-74
2022/12/18 12:56:43;;;;;;;72.60;28.70;;;;;;;-1.31;78.57;102322.39;126945;1295;107474;-73
2022/12/18 12:59:58;;;;;;;91.00;33.20;;;;;;;-1.36;78.46;102336.96;126885;1286;107492;-71
2022/12/18 13:03:13;;;;;;;67.20;27.10;;;;;;;-1.38;78.42;102337.70;126837;1295;108597;-71
2022/12/18 13:06:31;;;;;;;66.20;27.30;;;;;;;-1.43;78.10;102335.50;126893;1294;107533;-70
2022/12/18 13:10:28;;;;;;;64.10;26.00;;;;;;;-1.55;78.39;102335.16;126623;1295;106504;-69
2022/12/18 13:13:51;;;;;;;68.70;28.50;;;;;;;-1.61;78.01;102341.21;126231;1301;108184;-71
2022/12/18 13:17:28;;;;;;;138.80;75.70;;;;;;;-1.88;77.27;102346.85;126279;1299;107368;-69
2022/12/18 13:20:38;;;;;;;82.50;37.60;;;;;;;-2.01;78.14;102348.24;126726;1296;108041;-72
2022/12/18 13:23:44;;;;;;;105.30;45.80;;;;;;;-2.07;78.22;102350.75;126922;1295;107560;-70
2022/12/18 13:26:49;;;;;;;126.30;57.40;;;;;;;-2.04;78.58;102356.81;125657;1295;1354555;-69
2022/12/18 13:29:54;;;;;;;92.30;39.90;;;;;;;-2.02;78.61;102358.71;126601;1296;108290;-72
2022/12/18 13:33:45;;;;;;;83.10;34.60;;;;;;;-1.99;78.51;102355.70;126859;1296;107555;-72
2022/12/18 13:36:52;;;;;;;91.20;37.50;;;;;;;-1.85;78.60;102352.19;126982;1288;106182;-71
2022/12/18 13:39:58;;;;;;;74.20;28.90;;;;;;;-1.75;78.07;102342.81;126749;1295;107308;-71
2022/12/18 13:43:14;;;;;;;78.10;28.90;;;;;;;-1.74;78.39;102339.66;126831;1282;107384;-70
2022/12/18 13:46:26;;;;;;;69.90;26.80;;;;;;;-1.71;77.93;102343.45;126812;1295;108151;-71
2022/12/18 13:49:39;;;;;;;68.60;27.90;;;;;;;-1.77;77.24;102344.23;126712;1292;107851;-72
2022/12/18 13:52:44;;;;;;;;;;;;;;;-1.90;78.02;102349.64;126798;1295;105705;-71
2022/12/18 13:55:50;;;;;;;71.90;30.60;;;;;;;-1.86;78.14;102356.40;126909;1295;108201;-72
2022/12/18 13:59:15;;;;;;;68.30;28.20;;;;;;;-1.87;78.09;102359.73;127059;1294;107515;-70
2022/12/18 14:02:26;;;;;;;69.70;27.10;;;;;;;-1.93;77.81;102362.60;127168;1295;107519;-71
2022/12/18 14:05:35;;;;;;;72.70;28.10;;;;;;;-2.01;77.62;102369.34;127131;1295;108493;-71